Time;durP1;ratioP1;P1;durP2;ratioP2;P2;SDS_P1;SDS_P2;PMS_P1;PMS_P2;Temp;Humidity;BMP_temperature;BMP_pressure;BME280_temperature;BME280_humidity;BME280_pressure;Samples;Min_cycle;Max_cycle;Signal;HPM_P1;HPM_P2
2022/12/23 00:01:41;;;;;;;54.72;30.05;;;;;;;9.61;100.00;100308.03;5324024;27;20016;-84
2022/12/23 00:04:13;;;;;;;47.00;28.48;;;;;;;9.62;100.00;100309.72;5350848;27;20024;-84
2022/12/23 00:06:44;;;;;;;47.60;30.98;;;;;;;9.65;100.00;100320.06;5325258;27;21294;-83
2022/12/23 00:09:15;;;;;;;44.00;29.58;;;;;;;9.63;100.00;100307.91;5329391;27;20020;-84
2022/12/23 00:15:04;;;;;;;49.47;30.75;;;;;;;9.59;100.00;100312.69;5334513;27;20028;-84
2022/12/23 00:17:43;;;;;;;52.65;33.38;;;;;;;9.64;100.00;100326.38;5298353;27;20324;-83
2022/12/23 00:20:15;;;;;;;;;;;;;;;9.70;100.00;100330.28;5345150;27;20023;-83
2022/12/23 00:23:04;;;;;;;49.60;32.85;;;;;;;9.64;100.00;100333.50;5334773;27;19912;-83
2022/12/23 00:25:40;;;;;;;55.47;33.03;;;;;;;9.69;100.00;100330.41;5323229;27;20031;-85
2022/12/23 00:28:20;;;;;;;59.88;37.65;;;;;;;9.66;100.00;100331.56;5332645;27;20055;-84
2022/12/23 00:31:05;;;;;;;62.63;35.40;;;;;;;9.66;100.00;100323.59;5347080;27;20227;-84
2022/12/23 00:33:39;;;;;;;59.13;35.70;;;;;;;9.67;100.00;100332.41;5335955;27;20036;-83
2022/12/23 00:36:33;;;;;;;55.45;33.55;;;;;;;9.66;100.00;100334.22;5329178;27;20465;-84
2022/12/23 00:44:50;;;;;;;58.85;31.42;;;;;;;9.60;100.00;100346.28;5335072;27;20468;-84
2022/12/23 00:50:11;;;;;;;52.85;29.90;;;;;;;9.63;100.00;100356.66;5333745;27;20032;-84
2022/12/23 00:52:43;;;;;;;60.97;34.30;;;;;;;9.62;100.00;100362.13;5334126;27;20096;-83
2022/12/23 00:55:15;;;;;;;57.05;31.92;;;;;;;9.61;100.00;100369.28;5336572;27;20133;-83
2022/12/23 00:57:46;;;;;;;57.83;29.52;;;;;;;9.60;100.00;100370.25;5325510;27;20038;-83
2022/12/23 01:00:18;;;;;;;61.30;33.80;;;;;;;9.59;100.00;100371.25;5326921;27;20036;-84
2022/12/23 01:05:40;;;;;;;57.70;30.70;;;;;;;9.63;100.00;100387.78;5338034;27;20028;-83
2022/12/23 01:08:11;;;;;;;55.38;32.47;;;;;;;9.60;100.00;100385.41;5323653;27;20043;-84
2022/12/23 01:10:43;;;;;;;54.80;32.63;;;;;;;9.62;100.00;100380.75;5330697;27;20016;-84
2022/12/23 01:13:15;;;;;;;57.10;31.30;;;;;;;9.60;100.00;100369.44;5328444;27;20036;-84
2022/12/23 01:15:47;;;;;;;55.33;30.67;;;;;;;9.61;100.00;100381.78;5334335;27;20019;-83
2022/12/23 01:18:18;;;;;;;60.70;32.95;;;;;;;9.60;100.00;100385.41;5331076;27;20115;-81
2022/12/23 01:20:49;;;;;;;60.47;31.98;;;;;;;9.58;100.00;100382.06;5344792;27;20026;-81
2022/12/23 01:23:21;;;;;;;55.15;30.45;;;;;;;9.56;100.00;100382.19;5328831;27;20033;-83
2022/12/23 01:25:57;;;;;;;53.00;30.50;;;;;;;9.60;100.00;100378.25;5333457;27;20024;-83
2022/12/23 01:28:30;;;;;;;64.75;33.65;;;;;;;9.61;100.00;100381.78;5332745;27;20145;-83
2022/12/23 01:31:04;;;;;;;64.70;33.60;;;;;;;9.60;100.00;100377.41;5337691;27;20020;-84
2022/12/23 01:33:36;;;;;;;58.38;31.38;;;;;;;9.60;100.00;100382.75;5331311;27;20400;-83
2022/12/23 01:36:09;;;;;;;62.15;33.45;;;;;;;9.60;100.00;100385.41;5333754;27;20031;-83
2022/12/23 01:38:41;;;;;;;64.57;34.10;;;;;;;9.58;100.00;100382.88;5335406;27;20023;-83
2022/12/23 01:44:49;;;;;;;64.20;36.35;;;;;;;9.62;100.00;100386.09;5334458;27;20118;-84
2022/12/23 01:47:30;;;;;;;69.97;36.33;;;;;;;9.54;100.00;100389.50;5323237;27;20493;-83
2022/12/23 01:50:07;;;;;;;55.50;31.95;;;;;;;9.62;100.00;100404.72;5326684;27;20059;-84
2022/12/23 01:52:44;;;;;;;64.93;33.90;;;;;;;9.62;100.00;100402.94;5328958;27;20040;-83
2022/12/23 01:55:22;;;;;;;54.92;31.10;;;;;;;9.64;100.00;100398.28;5326919;27;20077;-83
2022/12/23 01:57:56;;;;;;;52.85;31.92;;;;;;;9.63;100.00;100401.94;5340677;27;20121;-83
2022/12/23 02:03:41;;;;;;;72.43;37.63;;;;;;;9.60;100.00;100412.88;5296822;27;20028;-82
2022/12/23 02:09:16;;;;;;;59.88;36.25;;;;;;;9.58;100.00;100422.81;5338307;27;20484;-83
2022/12/23 02:11:50;;;;;;;68.13;38.35;;;;;;;9.53;100.00;100416.28;5329374;27;20110;-83
2022/12/23 02:18:04;;;;;;;74.22;37.83;;;;;;;9.59;100.00;100421.00;5332408;27;20044;-84
2022/12/23 02:20:55;;;;;;;57.05;33.50;;;;;;;9.58;100.00;100419.34;5334633;27;20294;-83
2022/12/23 02:23:45;;;;;;;59.40;34.78;;;;;;;9.53;100.00;100418.94;5334461;27;20395;-83
2022/12/23 02:26:38;;;;;;;59.03;34.70;;;;;;;9.58;100.00;100422.00;5330256;27;20388;-83
2022/12/23 02:29:37;;;;;;;57.35;33.90;;;;;;;9.59;100.00;100423.66;5334003;27;20506;-83
2022/12/23 02:32:25;;;;;;;62.70;35.45;;;;;;;9.57;100.00;100437.16;5346247;27;20144;-83
2022/12/23 02:35:50;;;;;;;54.60;31.80;;;;;;;9.62;100.00;100436.69;5323010;27;20051;-83
2022/12/23 02:38:50;;;;;;;54.97;31.13;;;;;;;9.62;100.00;100453.53;5254541;28;20029;-84
2022/12/23 02:41:30;;;;;;;61.60;33.10;;;;;;;9.59;100.00;100456.47;5330023;27;20019;-84
2022/12/23 02:44:12;;;;;;;53.75;28.67;;;;;;;9.63;100.00;100473.00;5331729;27;20043;-84
2022/12/23 02:46:50;;;;;;;57.83;31.98;;;;;;;9.61;100.00;100469.63;5327680;27;20141;-83
2022/12/23 02:49:28;;;;;;;57.72;30.67;;;;;;;9.60;100.00;100476.78;5333042;27;20723;-83
2022/12/23 02:52:04;;;;;;;49.22;27.02;;;;;;;9.61;100.00;100486.44;5326824;27;20032;-84
2022/12/23 02:54:40;;;;;;;55.70;28.80;;;;;;;9.61;100.00;100486.44;5338377;27;20019;-83
2022/12/23 02:57:16;;;;;;;55.08;29.38;;;;;;;9.58;100.00;100486.72;5331082;27;20030;-83
2022/12/23 02:59:50;;;;;;;52.83;28.05;;;;;;;9.61;100.00;100482.97;5328314;27;20115;-84
2022/12/23 03:02:22;;;;;;;46.63;27.75;;;;;;;9.58;100.00;100476.09;5327230;27;20024;-83
2022/12/23 03:04:54;;;;;;;51.45;26.48;;;;;;;9.59;100.00;100475.09;5331677;27;20027;-84
2022/12/23 03:07:33;;;;;;;47.67;25.95;;;;;;;9.61;100.00;100488.28;5334004;27;20105;-84
2022/12/23 03:10:21;;;;;;;46.95;26.00;;;;;;;9.55;100.00;100470.22;5328467;27;20036;-83
2022/12/23 03:13:17;;;;;;;53.30;26.60;;;;;;;9.60;100.00;100495.41;5327409;27;20124;-83
2022/12/23 03:16:01;;;;;;;44.63;26.02;;;;;;;9.55;100.00;100484.34;5336644;27;20024;-83
2022/12/23 03:18:47;;;;;;;49.85;26.15;;;;;;;9.54;100.00;100484.53;5341258;27;20027;-84
2022/12/23 03:21:32;;;;;;;52.75;26.65;;;;;;;9.57;100.00;100478.88;5331268;27;20028;-83
2022/12/23 03:24:20;;;;;;;51.60;27.45;;;;;;;9.56;100.00;100485.22;5343204;27;20108;-83
2022/12/23 03:26:51;;;;;;;;;;;;;;;9.62;100.00;100481.94;5333604;27;20043;-84
2022/12/23 03:29:31;;;;;;;52.50;27.80;;;;;;;9.56;100.00;100480.72;5329316;27;19912;-84
2022/12/23 03:32:04;;;;;;;47.65;26.77;;;;;;;9.49;100.00;100466.31;5345888;27;20028;-84
2022/12/23 03:34:39;;;;;;;50.08;27.05;;;;;;;9.53;100.00;100466.84;5330049;27;20028;-84
2022/12/23 03:37:13;;;;;;;50.58;27.30;;;;;;;9.50;100.00;100472.47;5333541;27;20511;-83
2022/12/23 03:39:51;;;;;;;55.40;27.92;;;;;;;9.53;100.00;100482.81;5325531;27;20086;-83
2022/12/23 03:42:34;;;;;;;52.28;27.52;;;;;;;9.54;100.00;100476.53;5335511;27;20027;-83
2022/12/23 03:45:26;;;;;;;50.38;26.00;;;;;;;9.53;100.00;100486.31;5333290;27;20024;-84
2022/12/23 03:48:04;;;;;;;52.05;26.48;;;;;;;9.50;100.00;100472.47;5331763;27;20476;-83
2022/12/23 03:50:38;;;;;;;48.40;28.15;;;;;;;9.45;100.00;100479.06;5331175;27;20529;-83
2022/12/23 03:53:15;;;;;;;60.80;28.70;;;;;;;9.43;100.00;100475.72;5325772;27;20079;-84
2022/12/23 03:55:58;;;;;;;55.70;27.45;;;;;;;9.46;100.00;100488.72;5325341;27;20101;-83
2022/12/23 03:58:41;;;;;;;53.33;28.15;;;;;;;9.48;100.00;100483.25;5329296;27;20059;-81
2022/12/23 04:01:48;;;;;;;53.50;27.45;;;;;;;9.46;100.00;100486.06;5337319;27;20024;-83
2022/12/23 04:04:44;;;;;;;57.70;27.85;;;;;;;9.43;100.00;100483.69;5312733;27;20035;-83
2022/12/23 04:07:37;;;;;;;64.32;29.85;;;;;;;9.37;100.00;100486.91;5321180;27;20581;-84
2022/12/23 04:10:12;;;;;;;60.17;31.25;;;;;;;9.41;100.00;100495.47;5332218;27;20056;-84
2022/12/23 04:12:43;;;;;;;58.33;28.95;;;;;;;9.39;100.00;100492.09;5334164;27;20098;-83
2022/12/23 04:15:20;;;;;;;70.55;30.45;;;;;;;9.42;100.00;100508.63;5331049;27;20097;-84
2022/12/23 04:17:54;;;;;;;73.75;31.75;;;;;;;9.38;100.00;100499.25;5329043;27;20060;-84
2022/12/23 04:20:28;;;;;;;74.68;30.65;;;;;;;9.35;100.00;100501.38;5326501;27;20039;-83
2022/12/23 04:22:59;;;;;;;63.67;32.65;;;;;;;9.35;100.00;100504.88;5341851;27;20038;-83
2022/12/23 04:25:31;;;;;;;70.18;31.92;;;;;;;9.36;100.00;100513.69;5330539;27;20419;-83
2022/12/23 04:28:03;;;;;;;61.42;30.20;;;;;;;9.37;100.00;100518.03;5329497;27;20036;-84
2022/12/23 04:30:34;;;;;;;73.95;31.23;;;;;;;9.32;100.00;100522.94;5323290;27;20063;-84
2022/12/23 04:33:06;;;;;;;70.28;31.08;;;;;;;9.34;100.00;100520.97;5323989;27;20032;-83
2022/12/23 04:35:37;;;;;;;62.58;30.50;;;;;;;9.35;100.00;100541.31;5333275;27;20031;-84
2022/12/23 04:38:12;;;;;;;59.20;28.83;;;;;;;9.36;100.00;100530.50;5328147;27;20077;-84
2022/12/23 04:40:45;;;;;;;65.45;29.77;;;;;;;9.36;100.00;100525.19;5331167;27;20040;-83
2022/12/23 04:43:20;;;;;;;70.07;30.60;;;;;;;9.36;100.00;100524.31;5323251;27;20468;-82
2022/12/23 04:45:52;;;;;;;70.53;32.67;;;;;;;9.32;100.00;100518.44;5321692;27;20035;-83
2022/12/23 04:48:23;;;;;;;69.97;31.27;;;;;;;9.33;100.00;100514.81;5333785;27;20396;-83
2022/12/23 04:50:55;;;;;;;68.03;30.92;;;;;;;9.29;100.00;100510.75;5334571;27;20023;-84
2022/12/23 04:53:27;;;;;;;75.30;32.47;;;;;;;9.30;100.00;100514.25;5330283;27;20407;-83
2022/12/23 04:55:58;;;;;;;66.13;31.48;;;;;;;9.31;100.00;100507.94;5329486;27;20074;-83
2022/12/23 04:58:30;;;;;;;62.22;30.60;;;;;;;9.30;100.00;100507.13;5328652;27;20031;-83
2022/12/23 05:01:04;;;;;;;64.75;30.70;;;;;;;9.28;100.00;100498.44;5336514;27;20048;-83
2022/12/23 05:03:37;;;;;;;72.03;30.98;;;;;;;9.27;100.00;100486.97;5331512;27;20059;-83
2022/12/23 05:06:09;;;;;;;54.75;27.15;;;;;;;9.30;100.00;100495.63;5338414;27;20070;-83
2022/12/23 05:08:40;;;;;;;63.63;29.02;;;;;;;9.22;100.00;100489.22;5331865;27;20032;-83
2022/12/23 05:11:12;;;;;;;65.25;27.70;;;;;;;9.27;100.00;100496.75;5346716;27;20051;-84
2022/12/23 05:13:43;;;;;;;52.63;26.67;;;;;;;9.26;100.00;100497.75;5345124;27;20020;-83
2022/12/23 05:16:15;;;;;;;61.70;27.75;;;;;;;9.30;100.00;100501.78;5349288;27;21318;-83
2022/12/23 05:18:47;;;;;;;52.58;25.60;;;;;;;9.30;100.00;100507.13;5357449;27;20157;-84
2022/12/23 05:21:18;;;;;;;61.85;27.88;;;;;;;9.27;100.00;100510.91;5342239;27;21447;-83
2022/12/23 05:23:52;;;;;;;57.10;28.33;;;;;;;9.30;100.00;100533.72;5348838;27;20027;-83
2022/12/23 05:26:45;;;;;;;62.03;27.73;;;;;;;9.28;100.00;100533.88;5348735;27;20121;-84
2022/12/23 05:29:16;;;;;;;67.60;28.52;;;;;;;9.23;100.00;100536.09;5356224;27;20035;-84
2022/12/23 05:31:48;;;;;;;61.00;28.13;;;;;;;9.25;100.00;100542.13;5338073;27;20032;-83
2022/12/23 05:34:26;;;;;;;61.53;29.00;;;;;;;9.30;100.00;100548.88;5338418;27;20050;-82
2022/12/23 05:36:58;;;;;;;66.55;32.33;;;;;;;9.26;100.00;100550.97;5335259;27;20387;-83
2022/12/23 05:39:29;;;;;;;59.55;29.85;;;;;;;9.18;100.00;100546.34;5336753;27;20119;-83
2022/12/23 05:42:00;;;;;;;64.18;30.75;;;;;;;9.27;100.00;100557.97;5332848;27;20027;-84
2022/12/23 05:44:32;;;;;;;69.65;29.85;;;;;;;9.21;100.00;100554.03;5336123;27;20091;-84
2022/12/23 05:47:03;;;;;;;66.80;30.27;;;;;;;9.32;100.00;100557.53;5328318;27;20091;-84
2022/12/23 05:49:35;;;;;;;64.22;29.98;;;;;;;9.35;100.00;100567.91;5347131;27;20085;-84
2022/12/23 05:52:06;;;;;;;65.53;30.42;;;;;;;9.34;100.00;100552.91;5342553;27;20129;-83
2022/12/23 05:54:38;;;;;;;72.63;31.20;;;;;;;9.37;100.00;100553.47;5332639;27;20384;-84
2022/12/23 05:57:09;;;;;;;70.60;31.70;;;;;;;9.38;100.00;100541.00;5331068;27;20016;-83
2022/12/23 05:59:41;;;;;;;60.65;30.95;;;;;;;9.38;100.00;100533.88;5331188;27;20027;-84
2022/12/23 06:02:12;;;;;;;68.38;32.47;;;;;;;9.35;100.00;100523.50;5330394;27;20031;-84
2022/12/23 06:04:44;;;;;;;74.45;32.83;;;;;;;9.28;100.00;100531.19;5326593;27;20482;-84
2022/12/23 06:07:18;;;;;;;70.05;32.67;;;;;;;9.27;100.00;100526.03;5329544;27;20043;-84
2022/12/23 06:09:49;;;;;;;81.03;34.95;;;;;;;9.26;100.00;100525.19;5327952;27;20043;-83
2022/12/23 06:12:21;;;;;;;71.45;34.53;;;;;;;9.27;100.00;100516.22;5337754;27;20016;-83
2022/12/23 06:14:59;;;;;;;75.53;31.90;;;;;;;9.32;100.00;100521.13;5330931;27;20388;-83
2022/12/23 06:17:30;;;;;;;80.60;37.35;;;;;;;9.31;100.00;100515.94;5335946;27;22237;-83
2022/12/23 06:20:02;;;;;;;88.85;38.55;;;;;;;9.28;100.00;100503.75;5338198;27;20125;-83
2022/12/23 06:22:34;;;;;;;73.93;37.15;;;;;;;9.32;100.00;100510.47;5330305;27;20476;-83
2022/12/23 06:25:06;;;;;;;85.85;36.72;;;;;;;9.32;100.00;100505.16;5326416;27;20028;-84
2022/12/23 06:27:37;;;;;;;84.30;38.42;;;;;;;9.27;100.00;100505.59;5325414;27;20044;-84
2022/12/23 06:30:09;;;;;;;80.13;37.40;;;;;;;9.27;100.00;100508.25;5325314;27;20032;-83
2022/12/23 06:32:41;;;;;;;82.50;36.33;;;;;;;9.31;100.00;100519.44;5323119;27;20047;-83
2022/12/23 06:35:12;;;;;;;78.95;38.28;;;;;;;9.31;100.00;100516.78;5330363;27;20039;-83
2022/12/23 06:37:44;;;;;;;87.40;38.67;;;;;;;9.27;100.00;100516.22;5329087;27;20058;-83
2022/12/23 06:40:15;;;;;;;80.00;39.65;;;;;;;9.30;100.00;100519.59;5325241;27;20012;-81
2022/12/23 06:42:47;;;;;;;84.00;40.72;;;;;;;9.23;100.00;100508.66;5329826;27;20419;-83
2022/12/23 06:45:18;;;;;;;87.82;40.33;;;;;;;9.28;100.00;100528.53;5334284;27;20376;-83
2022/12/23 06:47:50;;;;;;;74.60;36.25;;;;;;;9.30;100.00;100535.56;5331919;27;20119;-83
2022/12/23 06:50:21;;;;;;;87.70;39.88;;;;;;;9.24;100.00;100531.66;5332071;27;20035;-85
2022/12/23 06:52:53;;;;;;;82.35;38.65;;;;;;;9.24;100.00;100537.81;5332328;27;20012;-84
2022/12/23 06:55:25;;;;;;;71.43;33.42;;;;;;;9.30;100.00;100543.53;5324921;27;20056;-84
2022/12/23 06:57:56;;;;;;;85.25;39.28;;;;;;;9.26;100.00;100553.63;5342592;27;20389;-84
2022/12/23 07:00:27;;;;;;;84.85;40.08;;;;;;;9.31;100.00;100572.69;5315451;27;21282;-85
2022/12/23 07:03:02;;;;;;;88.60;39.70;;;;;;;9.33;100.00;100578.69;5323517;27;20023;-84
2022/12/23 07:05:34;;;;;;;72.82;35.17;;;;;;;9.38;100.00;100588.91;5335468;27;20088;-85
2022/12/23 07:08:06;;;;;;;82.82;39.97;;;;;;;9.38;100.00;100599.56;5325694;27;20462;-84
2022/12/23 07:10:37;;;;;;;100.38;44.22;;;;;;;9.34;100.00;100596.34;5324293;27;20036;-83
2022/12/23 07:13:12;;;;;;;92.15;38.08;;;;;;;9.36;100.00;100589.06;5311529;27;20032;-84
2022/12/23 07:15:43;;;;;;;98.00;42.22;;;;;;;9.30;100.00;100572.81;5323597;27;20032;-84
2022/12/23 07:18:15;;;;;;;91.55;40.20;;;;;;;9.27;100.00;100566.81;5330814;27;20028;-84
2022/12/23 07:20:46;;;;;;;91.68;41.33;;;;;;;9.30;100.00;100559.50;5325648;27;20070;-84
2022/12/23 07:23:18;;;;;;;101.30;42.78;;;;;;;9.28;100.00;100568.47;5325382;27;20114;-84
2022/12/23 07:25:49;;;;;;;98.13;41.83;;;;;;;9.28;100.00;100565.81;5335355;27;20093;-85
2022/12/23 07:28:22;;;;;;;100.00;42.22;;;;;;;9.22;100.00;100561.06;5315547;27;20086;-85
2022/12/23 07:30:53;;;;;;;97.82;41.38;;;;;;;9.25;100.00;100568.75;5347069;27;20588;-85
2022/12/23 07:33:28;;;;;;;103.07;42.25;;;;;;;9.23;100.00;100573.38;5334819;27;20152;-83
2022/12/23 07:36:00;;;;;;;105.15;44.70;;;;;;;9.21;100.00;100563.84;5333996;27;20033;-84
2022/12/23 07:38:31;;;;;;;97.32;39.35;;;;;;;9.22;100.00;100557.53;5332819;27;20026;-84
2022/12/23 07:41:22;;;;;;;97.47;41.75;;;;;;;9.18;100.00;100551.66;5312839;27;20039;-85
2022/12/23 07:44:05;;;;;;;98.63;40.15;;;;;;;9.15;100.00;100546.63;5330005;27;20402;-85
2022/12/23 07:46:52;;;;;;;101.15;43.05;;;;;;;9.11;100.00;100539.06;5326048;27;20051;-85
2022/12/23 07:49:53;;;;;;;101.65;41.33;;;;;;;9.13;100.00;100548.56;5326717;27;20569;-86
2022/12/23 07:52:32;;;;;;;108.30;41.08;;;;;;;9.08;100.00;100543.69;5329643;27;20060;-85
2022/12/23 07:55:14;;;;;;;111.03;41.63;;;;;;;9.16;100.00;100564.25;5336265;27;20147;-83
2022/12/23 07:58:05;;;;;;;108.15;42.15;;;;;;;9.17;100.00;100554.44;5334711;27;20111;-84
2022/12/23 08:01:06;;;;;;;106.35;41.58;;;;;;;8.93;100.00;100522.97;5327230;27;20028;-85
2022/12/23 08:04:10;;;;;;;110.03;38.80;;;;;;;9.18;100.00;100569.44;5335470;27;20157;-85
2022/12/23 08:06:58;;;;;;;98.07;38.20;;;;;;;9.15;100.00;100556.41;5331675;27;20048;-85
2022/12/23 08:09:40;;;;;;;92.53;39.92;;;;;;;9.13;100.00;100551.22;5330768;27;20031;-85
2022/12/23 08:12:49;;;;;;;;;;;;;;;;;;;;;
2022/12/23 08:15:49;;;;;;;98.03;34.95;;;;;;;9.15;100.00;100546.63;5329216;27;41240;-85
2022/12/23 08:18:58;;;;;;;88.80;34.55;;;;;;;9.15;100.00;100537.78;5332417;27;20142;-84
2022/12/23 08:21:43;;;;;;;89.80;36.20;;;;;;;9.11;100.00;100531.91;5326082;27;20039;-85
2022/12/23 08:24:31;;;;;;;94.40;35.08;;;;;;;9.07;100.00;100551.81;5330204;27;20085;-84
2022/12/23 08:27:41;;;;;;;;;;;;;;;;;;;;;
2022/12/23 08:30:43;;;;;;;77.00;33.03;;;;;;;9.06;100.00;100545.66;5337846;27;41305;-84
2022/12/23 08:36:55;;;;;;;74.50;30.17;;;;;;;9.02;100.00;100536.25;5317341;27;20114;-84
2022/12/23 08:39:53;;;;;;;65.38;28.98;;;;;;;9.08;100.00;100540.16;5340738;27;20097;-84
2022/12/23 08:42:28;;;;;;;70.25;28.25;;;;;;;8.98;100.00;100520.72;5328490;27;20040;-84
2022/12/23 08:48:33;;;;;;;61.88;27.42;;;;;;;9.04;100.00;100526.31;5339897;27;20032;-84
2022/12/23 08:51:19;;;;;;;67.47;29.00;;;;;;;9.03;100.00;100521.97;5328828;27;20481;-84
2022/12/23 08:54:18;;;;;;;65.95;27.58;;;;;;;9.08;100.00;100513.56;5285771;28;20071;-84
2022/12/23 08:57:08;;;;;;;66.78;28.25;;;;;;;9.06;100.00;100513.72;5289428;28;20041;-84
2022/12/23 09:00:34;;;;;;;65.78;28.48;;;;;;;9.06;100.00;100521.72;5287648;28;20567;-85
2022/12/23 09:06:41;;;;;;;63.90;27.15;;;;;;;8.81;100.00;100475.22;5269730;28;20127;-85
2022/12/23 09:09:16;;;;;;;56.28;24.75;;;;;;;8.99;100.00;100487.81;5300627;28;20047;-85
2022/12/23 09:12:13;;;;;;;57.45;24.95;;;;;;;8.96;100.00;100480.97;5303461;28;20032;-85
2022/12/23 09:14:50;;;;;;;62.47;25.23;;;;;;;8.91;100.00;100453.13;5285007;28;20607;-85
2022/12/23 09:17:21;;;;;;;60.90;25.38;;;;;;;9.01;100.00;100484.03;5303650;28;20033;-83
2022/12/23 09:20:01;;;;;;;55.22;24.23;;;;;;;8.95;100.00;100463.31;5286684;28;20036;-83
2022/12/23 09:22:40;;;;;;;50.75;22.42;;;;;;;9.03;100.00;100465.28;5286257;28;20458;-85
2022/12/23 09:25:23;;;;;;;53.03;22.65;;;;;;;8.94;100.00;100448.34;5313393;28;20045;-85
2022/12/23 09:28:02;;;;;;;48.40;22.05;;;;;;;8.96;100.00;100450.84;5333485;27;20067;-85
2022/12/23 09:30:34;;;;;;;48.25;21.80;;;;;;;8.91;100.00;100445.13;5326171;28;20036;-85
2022/12/23 09:33:27;;;;;;;50.80;22.65;;;;;;;8.91;100.00;100447.78;5325567;28;20028;-85
2022/12/23 09:36:08;;;;;;;46.38;20.15;;;;;;;9.00;100.00;100465.56;5325134;27;20040;-85
2022/12/23 09:38:54;;;;;;;45.17;20.90;;;;;;;8.85;100.00;100433.22;5326375;28;20112;-85
2022/12/23 09:42:16;;;;;;;;;;;;;;;;;;;;;
2022/12/23 09:45:23;;;;;;;43.83;19.88;;;;;;;9.03;100.00;100449.31;5311678;27;41359;-85
2022/12/23 09:48:02;;;;;;;37.45;18.48;;;;;;;8.94;100.00;100435.06;5346318;27;20075;-85
2022/12/23 09:50:45;;;;;;;40.78;17.38;;;;;;;9.04;100.00;100437.69;5337270;27;20050;-85
2022/12/23 09:53:32;;;;;;;40.75;17.27;;;;;;;9.07;100.00;100434.75;5323639;27;20094;-85
2022/12/23 09:56:26;;;;;;;37.72;18.77;;;;;;;9.05;100.00;100444.69;5341652;27;20036;-85
2022/12/23 09:59:22;;;;;;;39.53;16.98;;;;;;;9.06;100.00;100449.00;5327785;27;20027;-85
2022/12/23 10:02:29;;;;;;;32.70;16.73;;;;;;;8.94;100.00;100423.56;5297996;28;20622;-85
2022/12/23 10:05:28;;;;;;;36.65;17.77;;;;;;;9.18;100.00;100452.38;5318062;28;20510;-85
2022/12/23 10:08:37;;;;;;;40.08;17.42;;;;;;;9.18;100.00;100452.38;5325427;28;20044;-85
2022/12/23 10:11:57;;;;;;;43.30;17.05;;;;;;;9.22;100.00;100440.44;5325287;28;20032;-85
2022/12/23 10:18:04;;;;;;;37.77;18.40;;;;;;;9.07;100.00;100405.47;5295813;28;20119;-85
2022/12/23 10:20:49;;;;;;;39.03;19.30;;;;;;;9.11;100.00;100409.53;5324248;27;20052;-85
2022/12/23 10:24:13;;;;;;;40.03;20.13;;;;;;;9.03;100.00;100383.66;5341875;27;20031;-85
2022/12/23 10:27:34;;;;;;;34.97;19.98;;;;;;;9.16;100.00;100387.81;5334745;27;20504;-85
2022/12/23 10:30:34;;;;;;;38.90;20.60;;;;;;;9.14;100.00;100381.81;5323402;27;20503;-85
2022/12/23 10:33:21;;;;;;;40.03;18.70;;;;;;;9.24;100.00;100385.28;5324900;28;20094;-85
2022/12/23 10:36:04;;;;;;;39.40;18.05;;;;;;;9.33;100.00;100380.91;5334189;27;20126;-85
2022/12/23 10:38:51;;;;;;;31.38;17.60;;;;;;;9.36;100.00;100376.13;5329710;27;20079;-85
2022/12/23 10:41:54;;;;;;;30.52;17.23;;;;;;;9.53;100.00;100376.34;5340887;27;20016;-85
2022/12/23 10:44:59;;;;;;;34.80;17.83;;;;;;;9.50;100.00;100373.94;5335370;27;20032;-84
2022/12/23 10:48:02;;;;;;;30.17;16.65;;;;;;;9.49;100.00;100365.13;5324988;28;20036;-84
2022/12/23 10:50:54;;;;;;;28.52;17.02;;;;;;;9.44;100.00;100354.91;5326463;27;20020;-84
2022/12/23 10:53:43;;;;;;;26.77;15.38;;;;;;;9.51;100.00;100341.03;5326557;28;20024;-84
2022/12/23 10:56:14;;;;;;;28.73;14.88;;;;;;;9.44;100.00;100341.59;5325540;28;20412;-84
2022/12/23 10:58:54;;;;;;;27.02;14.98;;;;;;;9.39;100.00;100327.91;5325149;27;20012;-84
2022/12/23 11:01:29;;;;;;;27.55;14.30;;;;;;;9.39;100.00;100319.09;5324456;27;20487;-84
2022/12/23 11:04:16;;;;;;;24.38;13.50;;;;;;;9.45;100.00;100315.84;5324306;28;20025;-85
2022/12/23 11:06:51;;;;;;;28.52;13.98;;;;;;;9.44;100.00;100306.19;5304614;28;20114;-84
2022/12/23 11:09:27;;;;;;;24.33;13.02;;;;;;;9.41;100.00;100295.81;5303479;28;20017;-84
2022/12/23 11:12:01;;;;;;;26.30;13.43;;;;;;;9.34;100.00;100300.88;5302924;28;20044;-85
2022/12/23 11:14:55;;;;;;;22.25;12.57;;;;;;;9.35;100.00;100301.75;5303214;28;20025;-84
2022/12/23 11:17:29;;;;;;;22.73;11.70;;;;;;;9.24;100.00;100292.13;5312686;27;20465;-84
2022/12/23 11:20:09;;;;;;;21.05;12.23;;;;;;;9.20;100.00;100301.38;5323740;27;20068;-85
2022/12/23 11:23:00;;;;;;;25.02;11.95;;;;;;;9.20;100.00;100302.25;5325540;28;20505;-84
2022/12/23 11:25:42;;;;;;;27.38;12.27;;;;;;;9.18;100.00;100306.00;5323804;28;20059;-84
2022/12/23 11:28:20;;;;;;;22.25;11.90;;;;;;;9.13;100.00;100292.31;5327690;28;20379;-84
2022/12/23 11:31:10;;;;;;;26.15;12.70;;;;;;;9.13;100.00;100276.34;5330701;28;20024;-83
2022/12/23 11:33:59;;;;;;;23.80;12.45;;;;;;;9.07;100.00;100267.97;5312818;28;20028;-84
2022/12/23 11:36:33;;;;;;;21.67;12.32;;;;;;;9.06;100.00;100276.94;5329877;28;20028;-84
2022/12/23 11:39:13;;;;;;;23.08;11.90;;;;;;;9.04;100.00;100262.94;5326489;28;20024;-83
2022/12/23 11:41:51;;;;;;;24.13;11.93;;;;;;;9.09;100.00;100266.00;5324504;28;20102;-84
2022/12/23 11:44:27;;;;;;;25.92;11.63;;;;;;;9.04;100.00;100238.16;5324323;28;20369;-84
2022/12/23 11:47:30;;;;;;;25.35;11.27;;;;;;;9.15;100.00;100239.78;5321586;28;20040;-84
2022/12/23 11:50:36;;;;;;;26.75;12.15;;;;;;;9.15;100.00;100239.78;5305375;28;20043;-84
2022/12/23 11:53:23;;;;;;;25.60;11.80;;;;;;;9.14;100.00;100232.81;5318997;27;20033;-84
2022/12/23 11:56:08;;;;;;;22.70;12.18;;;;;;;9.06;100.00;100214.91;5319992;27;20111;-83
2022/12/23 11:58:47;;;;;;;23.02;11.90;;;;;;;9.13;100.00;100217.81;5330070;27;20086;-84
2022/12/23 12:01:25;;;;;;;25.30;13.02;;;;;;;9.06;100.00;100213.09;5333630;27;20085;-85
2022/12/23 12:04:00;;;;;;;25.63;12.30;;;;;;;9.08;100.00;100199.63;5325375;27;20385;-84
2022/12/23 12:06:32;;;;;;;23.20;12.50;;;;;;;9.07;100.00;100182.84;5322461;28;20491;-84
2022/12/23 12:09:05;;;;;;;32.50;13.13;;;;;;;9.08;100.00;100173.00;5323275;27;20380;-84
2022/12/23 12:11:43;;;;;;;28.90;12.63;;;;;;;9.09;100.00;100156.09;5323552;28;20046;-85
2022/12/23 12:14:48;;;;;;;31.95;12.93;;;;;;;9.12;100.00;100144.31;5324965;28;20383;-85
2022/12/23 12:17:25;;;;;;;22.23;12.27;;;;;;;9.10;100.00;100139.16;5323279;28;20050;-85
2022/12/23 12:20:08;;;;;;;30.67;13.25;;;;;;;9.16;100.00;100138.53;5323676;28;20028;-85
2022/12/23 12:22:53;;;;;;;25.58;12.85;;;;;;;9.23;100.00;100123.63;5322537;28;20476;-85
2022/12/23 12:25:54;;;;;;;29.75;12.98;;;;;;;9.35;100.00;100126.09;5325103;28;20034;-85
2022/12/23 12:28:33;;;;;;;29.20;13.45;;;;;;;9.36;100.00;100141.91;5318209;27;20040;-85
2022/12/23 12:31:22;;;;;;;32.00;13.75;;;;;;;9.37;100.00;100140.06;5322988;28;20401;-86
2022/12/23 12:34:18;;;;;;;32.97;13.70;;;;;;;9.35;100.00;100134.91;5319298;28;20052;-85
2022/12/23 12:36:53;;;;;;;27.73;13.23;;;;;;;9.43;100.00;100113.69;5319087;28;20365;-85
2022/12/23 12:39:32;;;;;;;23.50;13.13;;;;;;;9.44;100.00;100096.72;5318951;28;20469;-85
2022/12/23 12:42:27;;;;;;;27.45;12.98;;;;;;;9.47;100.00;100092.91;5318989;28;20024;-86
2022/12/23 12:45:16;;;;;;;27.63;12.50;;;;;;;9.45;100.00;100086.91;5322866;28;20089;-86
2022/12/23 12:48:26;;;;;;;25.27;12.10;;;;;;;9.47;100.00;100079.59;5323216;28;20043;-85
2022/12/23 12:51:19;;;;;;;30.70;12.63;;;;;;;9.43;100.00;100071.09;5317707;27;20111;-85
2022/12/23 12:53:55;;;;;;;28.73;13.18;;;;;;;9.35;100.00;100071.03;5321658;27;20043;-85
2022/12/23 12:56:38;;;;;;;23.30;13.40;;;;;;;9.32;100.00;100052.69;5326061;27;20063;-85
2022/12/23 12:59:21;;;;;;;23.02;14.23;;;;;;;9.26;100.00;100026.69;5320063;27;20514;-86